Flugplatz Laucha

Für EDBL sind keine METAR/TAF Berichte vorhanden.
Es werden die Flugwettermeldungen vom Flugplatz Leipzig Halle in 42 km Entfernung angezeigt.

Bericht für EDDP

vom 25.10. um 15:50 UTC

Wind 6 kt aus 190°

Sichtweite 10 km oder mehr

gute Sicht, keine Wolken < 5000 ft, keine CB, keine Wettererscheinungen (CAVOK)

Temperatur 10.0°C

Taupunkt 6.0°C

Luftfeuchtigkeit 76%

Luftdruck 1019 hPa

keine wesentliche Wetteränderung innerhalb den nächsten 2 Stunden zu erwarten

EDDP 251550Z 19006KT 170V240 CAVOK 10/06 Q1019 NOSIG

Prognose für EDDP

vom 25.10. um 11:00 UTC

Zwischen 12:00 UTC und 12:00 UTC

Wind 8 kt aus 210°

Sichtweite 10 km oder mehr

keine signifikanten Wettererscheinungen

keine Wolken

TAF EDDP 251100Z 2512/2612 21008KT CAVOK
Impressum